createdAt,value
2023-03-01T00:04:10.019Z,-1
2023-03-01T00:14:12.167Z,-1
2023-03-01T00:24:14.920Z,-1.1
2023-03-01T00:34:17.266Z,-1.2
2023-03-01T00:44:19.244Z,-1.3
2023-03-01T00:54:21.262Z,-1.5
2023-03-01T01:04:23.930Z,-1.6
2023-03-01T01:14:26.090Z,-1.6
2023-03-01T01:24:29.535Z,-2
2023-03-01T01:34:30.940Z,-2
2023-03-01T01:44:32.821Z,-2
2023-03-01T01:54:35.355Z,-2
2023-03-01T02:04:37.827Z,-2.1
2023-03-01T02:44:46.585Z,-2.6
2023-03-01T02:54:48.588Z,-2.7
2023-03-01T03:04:51.059Z,-2.6
2023-03-01T03:34:57.493Z,-2.7
2023-03-01T03:44:59.461Z,-2.7
2023-03-01T03:55:02.013Z,-3
2023-03-01T04:05:03.927Z,-3.2
2023-03-01T04:15:06.219Z,-3.3
2023-03-01T04:35:10.981Z,-3.2
2023-03-01T04:55:15.149Z,-3.2
2023-03-01T05:05:17.792Z,-3.3
2023-03-01T05:15:19.667Z,-3.3
2023-03-01T05:35:24.053Z,-3.4
2023-03-01T05:55:29.207Z,-3.6
2023-03-01T06:15:32.862Z,-3.5
2023-03-01T06:35:37.151Z,-3.4
2023-03-01T06:45:38.955Z,-3.4
2023-03-01T06:55:41.202Z,-3.3
2023-03-01T07:15:45.881Z,-3.2
2023-03-01T07:25:48.139Z,-3.1
2023-03-01T07:35:49.982Z,-3
2023-03-01T07:55:54.054Z,-2.4
2023-03-01T08:05:56.101Z,-1.9
2023-03-01T08:15:58.212Z,-1.6
2023-03-01T08:26:00.154Z,-1.3
2023-03-01T08:36:02.178Z,-1
2023-03-01T08:46:04.643Z,-0.7
2023-03-01T08:56:06.752Z,-0.3
2023-03-01T09:06:08.645Z,0
2023-03-01T09:16:10.845Z,0.5
2023-03-01T09:26:13.112Z,0.8
2023-03-01T09:36:15.120Z,1.2
2023-03-01T09:46:17.857Z,1.7
2023-03-01T09:56:19.839Z,2
2023-03-01T10:06:33.800Z,2.3
2023-03-01T10:16:24.060Z,2.4
2023-03-01T10:26:26.560Z,2.8
2023-03-01T10:36:28.933Z,2.9
2023-03-01T10:46:30.551Z,3.2
2023-03-01T10:56:33.088Z,3.4
2023-03-01T11:06:35.247Z,3.4
2023-03-01T11:16:37.933Z,3.6
2023-03-01T11:26:40.510Z,3.8
2023-03-01T11:36:42.247Z,4.1
2023-03-01T11:46:44.290Z,4.1
2023-03-01T11:56:46.405Z,4.2
2023-03-01T12:06:48.465Z,4.1
2023-03-01T12:16:50.605Z,4.4
2023-03-01T12:36:55.697Z,4.9
2023-03-01T12:46:57.608Z,4.7
2023-03-01T12:57:00.139Z,4.8
2023-03-01T13:07:02.739Z,5
2023-03-01T13:17:04.783Z,5.3
2023-03-01T13:27:06.924Z,5.2
2023-03-01T13:37:09.318Z,5.1
2023-03-01T13:47:11.882Z,5.3
2023-03-01T13:57:14.128Z,5.5
2023-03-01T14:07:16.397Z,5.5
2023-03-01T14:27:20.830Z,5.5
2023-03-01T14:37:22.554Z,5.6
2023-03-01T14:47:25.036Z,5.6
2023-03-01T14:57:26.957Z,5.6
2023-03-01T15:07:29.242Z,5.8
2023-03-01T15:17:31.207Z,5.8
2023-03-01T15:37:35.760Z,5.7
2023-03-01T15:47:38.258Z,5.6
2023-03-01T15:57:40.399Z,5.6
2023-03-01T16:07:42.978Z,5.6
2023-03-01T16:17:45.146Z,5.5
2023-03-01T16:27:47.103Z,5.2
2023-03-01T16:37:49.783Z,5.1
2023-03-01T16:47:53.271Z,5
2023-03-01T16:57:53.741Z,4.8
2023-03-01T17:07:56.078Z,4.7
2023-03-01T17:17:58.688Z,4.4
2023-03-01T17:28:00.476Z,4.2
2023-03-01T17:48:04.729Z,3.8
2023-03-01T17:58:06.973Z,3.7
2023-03-01T18:08:09.305Z,3.5
2023-03-01T18:48:17.973Z,2.8
2023-03-01T19:08:21.665Z,2.5
2023-03-01T19:18:23.498Z,2.6
2023-03-01T19:48:30.780Z,2.3
2023-03-01T19:58:33.262Z,2.3
2023-03-01T20:08:35.241Z,2.1
2023-03-01T20:28:39.817Z,2
2023-03-01T20:38:42.105Z,1.9
2023-03-01T20:48:43.967Z,1.9
2023-03-01T20:58:45.725Z,1.8
2023-03-01T21:08:47.819Z,1.8
2023-03-01T21:18:49.906Z,1.7
2023-03-01T21:28:52.249Z,1.7
2023-03-01T21:38:53.964Z,1.6
2023-03-01T21:48:56.476Z,1.5
2023-03-01T21:58:58.821Z,1.5
2023-03-01T22:09:00.891Z,1.6
2023-03-01T22:19:03.099Z,1.5
2023-03-01T22:29:05.230Z,1.5
2023-03-01T22:39:07.411Z,1.4
2023-03-01T22:59:11.485Z,1.1
2023-03-01T23:09:13.435Z,1
2023-03-01T23:19:15.497Z,1
2023-03-01T23:59:25.220Z,0.6
